createdAt,value
2019-02-23T00:02:26.981Z,1.30
2019-02-23T00:04:56.712Z,1.70
2019-02-23T00:07:26.369Z,1.50
2019-02-23T00:09:56.091Z,1.30
2019-02-23T00:12:25.839Z,1.50
2019-02-23T00:14:56.956Z,1.30
2019-02-23T00:17:27.056Z,1.13
2019-02-23T00:19:56.706Z,1.23
2019-02-23T00:22:26.388Z,1.50
2019-02-23T00:24:55.954Z,1.33
2019-02-23T00:27:25.574Z,1.47
2019-02-23T00:29:55.162Z,1.60
2019-02-23T00:32:24.845Z,1.37
2019-02-23T00:34:54.414Z,1.60
2019-02-23T00:37:24.019Z,1.60
2019-02-23T00:39:53.569Z,1.30
2019-02-23T00:42:23.218Z,1.47
2019-02-23T00:44:52.958Z,1.53
2019-02-23T00:47:22.588Z,1.67
2019-02-23T00:49:52.172Z,1.63
2019-02-23T00:52:21.782Z,1.23
2019-02-23T00:54:51.315Z,1.20
2019-02-23T00:57:20.927Z,1.30
2019-02-23T00:59:50.611Z,1.73
2019-02-23T01:02:20.256Z,1.50
2019-02-23T01:04:49.929Z,1.77
2019-02-23T01:07:22.290Z,1.93
2019-02-23T01:09:51.940Z,1.73
2019-02-23T01:12:21.678Z,1.73
2019-02-23T01:14:51.339Z,1.87
2019-02-23T01:17:21.018Z,1.43
2019-02-23T01:19:50.656Z,1.60
2019-02-23T01:22:20.308Z,1.40
2019-02-23T01:24:49.976Z,1.60
2019-02-23T01:27:19.545Z,1.37
2019-02-23T01:29:49.150Z,1.63
2019-02-23T01:32:18.782Z,1.20
2019-02-23T01:34:48.368Z,1.70
2019-02-23T01:37:18.102Z,1.43
2019-02-23T01:39:47.694Z,1.67
2019-02-23T01:42:17.293Z,1.27
2019-02-23T01:44:46.909Z,1.33
2019-02-23T01:47:16.613Z,1.57
2019-02-23T01:49:46.285Z,1.87
2019-02-23T01:52:15.919Z,1.57
2019-02-23T01:54:45.458Z,1.60
2019-02-23T01:57:21.030Z,1.90
2019-02-23T01:59:50.662Z,1.47
2019-02-23T02:02:20.266Z,1.60
2019-02-23T02:04:49.916Z,1.60
2019-02-23T02:07:19.565Z,1.10
2019-02-23T02:09:49.359Z,1.50
2019-02-23T02:12:18.981Z,1.70
2019-02-23T02:14:48.650Z,1.80
2019-02-23T02:17:19.313Z,1.70
2019-02-23T02:19:48.878Z,1.83
2019-02-23T02:22:18.628Z,1.70
2019-02-23T02:24:48.233Z,1.77
2019-02-23T02:27:17.965Z,1.63
2019-02-23T02:29:48.634Z,2.30
2019-02-23T02:32:18.289Z,2.20
2019-02-23T02:34:47.685Z,1.83
2019-02-23T02:37:17.352Z,1.97
2019-02-23T02:39:46.910Z,1.90
2019-02-23T02:42:16.550Z,1.70
2019-02-23T02:44:46.130Z,1.97
2019-02-23T02:47:15.868Z,2.00
2019-02-23T02:49:45.501Z,1.60
2019-02-23T02:52:15.149Z,1.97
2019-02-23T02:54:44.760Z,1.70
2019-02-23T02:57:14.415Z,1.70
2019-02-23T02:59:44.000Z,2.07
2019-02-23T03:02:13.622Z,2.00
2019-02-23T03:04:43.169Z,2.00
2019-02-23T03:07:12.910Z,1.67
2019-02-23T03:09:42.593Z,2.00
2019-02-23T03:12:12.244Z,2.00
2019-02-23T03:14:41.842Z,2.00
2019-02-23T03:17:11.420Z,1.70
2019-02-23T03:19:41.001Z,1.87
2019-02-23T03:22:10.674Z,1.90
2019-02-23T03:24:40.242Z,1.87
2019-02-23T03:27:09.929Z,2.03
2019-02-23T03:29:39.588Z,2.23
2019-02-23T03:32:09.279Z,2.33
2019-02-23T03:34:38.913Z,2.30
2019-02-23T03:37:08.492Z,2.43
2019-02-23T03:39:38.094Z,2.13
2019-02-23T03:42:07.691Z,2.33
2019-02-23T03:44:37.336Z,2.30
2019-02-23T03:47:06.925Z,2.20
2019-02-23T03:49:36.576Z,2.20
2019-02-23T03:52:06.171Z,2.10
2019-02-23T03:54:35.848Z,2.43
2019-02-23T03:57:05.510Z,2.23
2019-02-23T03:59:35.107Z,2.07
2019-02-23T04:02:04.694Z,1.80
2019-02-23T04:04:34.274Z,2.50
2019-02-23T04:07:03.861Z,2.23
2019-02-23T04:09:33.438Z,1.63
2019-02-23T04:12:03.122Z,2.43
2019-02-23T04:14:32.624Z,2.40
2019-02-23T04:17:02.215Z,2.50
2019-02-23T04:19:31.990Z,2.37
2019-02-23T04:22:01.584Z,2.40
2019-02-23T04:24:31.241Z,2.37
2019-02-23T04:27:00.967Z,2.70
2019-02-23T04:29:30.616Z,2.37
2019-02-23T04:32:00.205Z,2.47
2019-02-23T04:34:29.878Z,2.20
2019-02-23T04:36:59.560Z,2.50
2019-02-23T04:39:29.080Z,1.73
2019-02-23T04:41:58.698Z,2.07
2019-02-23T04:44:28.292Z,2.30
2019-02-23T04:46:57.812Z,2.43
2019-02-23T04:49:27.488Z,2.10
2019-02-23T04:51:57.131Z,2.30
2019-02-23T04:54:26.784Z,2.47
2019-02-23T04:56:56.500Z,2.20
2019-02-23T04:59:26.085Z,2.93
2019-02-23T05:01:55.687Z,4.53
2019-02-23T05:04:25.243Z,2.70
2019-02-23T05:06:55.807Z,2.40
2019-02-23T05:09:25.403Z,2.40
2019-02-23T05:11:55.056Z,2.70
2019-02-23T05:14:38.303Z,3.97
2019-02-23T05:17:07.870Z,3.27
2019-02-23T05:19:37.496Z,6.90
2019-02-23T05:22:07.094Z,2.47
2019-02-23T05:24:36.733Z,2.47
2019-02-23T05:27:06.342Z,3.00
2019-02-23T05:29:35.847Z,2.43
2019-02-23T05:32:05.439Z,2.53
2019-02-23T05:34:35.101Z,2.37
2019-02-23T05:37:04.751Z,2.50
2019-02-23T05:39:34.281Z,1.73
2019-02-23T05:42:03.854Z,3.13
2019-02-23T05:44:33.433Z,2.47
2019-02-23T05:47:03.028Z,2.30
2019-02-23T05:49:32.614Z,2.60
2019-02-23T05:52:02.249Z,3.10
2019-02-23T05:54:32.011Z,2.90
2019-02-23T05:57:01.601Z,2.67
2019-02-23T05:59:31.253Z,3.03
2019-02-23T06:02:00.913Z,2.90
2019-02-23T06:04:30.442Z,4.60
2019-02-23T06:07:00.039Z,3.17
2019-02-23T06:09:29.685Z,2.33
2019-02-23T06:11:59.394Z,3.00
2019-02-23T06:14:29.052Z,2.83
2019-02-23T06:16:58.615Z,3.43
2019-02-23T06:19:28.223Z,3.47
2019-02-23T06:21:58.767Z,3.80
2019-02-23T06:24:28.422Z,3.63
2019-02-23T06:26:57.991Z,3.43
2019-02-23T06:29:27.574Z,3.97
2019-02-23T06:31:57.171Z,4.10
2019-02-23T06:34:26.828Z,2.50
2019-02-23T06:36:56.554Z,3.90
2019-02-23T06:39:26.165Z,3.90
2019-02-23T06:41:55.767Z,3.83
2019-02-23T06:44:25.430Z,3.43
2019-02-23T06:46:55.014Z,3.17
2019-02-23T06:49:24.674Z,4.17
2019-02-23T06:52:04.058Z,3.27
2019-02-23T06:54:25.499Z,3.73
2019-02-23T06:56:55.164Z,3.90
2019-02-23T06:59:24.830Z,3.37
2019-02-23T07:01:56.639Z,4.27
2019-02-23T07:04:25.872Z,3.63
2019-02-23T07:06:55.548Z,4.50
2019-02-23T07:09:25.219Z,4.43
2019-02-23T07:11:54.801Z,4.63
2019-02-23T07:14:24.480Z,4.47
2019-02-23T07:16:54.068Z,4.30
2019-02-23T07:19:23.728Z,3.87
2019-02-23T07:21:53.401Z,4.53
2019-02-23T07:24:23.067Z,4.27
2019-02-23T07:26:52.809Z,4.13
2019-02-23T07:29:22.385Z,5.47
2019-02-23T07:31:52.000Z,2.97
2019-02-23T07:34:21.590Z,7.77
2019-02-23T07:36:51.180Z,4.50
2019-02-23T07:39:20.762Z,3.90
2019-02-23T07:41:50.421Z,4.93
2019-02-23T07:44:20.099Z,7.10
2019-02-23T07:46:49.768Z,4.30
2019-02-23T07:49:19.359Z,4.47
2019-02-23T07:51:49.115Z,4.10
2019-02-23T07:54:18.824Z,2.83
2019-02-23T07:56:48.486Z,5.70
2019-02-23T07:59:19.542Z,3.83
2019-02-23T08:01:49.127Z,15.87
2019-02-23T08:04:18.721Z,4.10
2019-02-23T08:06:48.446Z,4.37
2019-02-23T08:09:18.089Z,4.17
2019-02-23T08:11:47.824Z,4.70
2019-02-23T08:14:17.488Z,4.63
2019-02-23T08:16:47.189Z,4.53
2019-02-23T08:19:16.911Z,4.33
2019-02-23T08:21:46.581Z,4.67
2019-02-23T08:24:16.254Z,4.20
2019-02-23T08:26:45.927Z,5.40
2019-02-23T08:29:16.578Z,2.70
2019-02-23T08:31:46.294Z,4.43
2019-02-23T08:34:16.032Z,4.33
2019-02-23T08:36:45.675Z,4.07
2019-02-23T08:39:15.437Z,4.67
2019-02-23T08:41:45.200Z,3.73
2019-02-23T08:44:14.948Z,5.07
2019-02-23T08:46:45.044Z,4.00
2019-02-23T08:49:14.763Z,3.80
2019-02-23T08:51:44.386Z,4.87
2019-02-23T08:54:33.317Z,5.03
2019-02-23T08:57:02.896Z,3.67
2019-02-23T08:59:32.560Z,2.03
2019-02-23T09:02:02.126Z,4.43
2019-02-23T09:04:31.796Z,3.70
2019-02-23T09:07:01.484Z,4.77
2019-02-23T09:09:31.064Z,3.40
2019-02-23T09:12:00.721Z,4.23
2019-02-23T09:14:30.430Z,6.33
2019-02-23T09:17:00.118Z,4.67
2019-02-23T09:19:29.784Z,5.00
2019-02-23T09:21:59.284Z,5.50
2019-02-23T09:24:29.405Z,9.43
2019-02-23T09:26:58.987Z,3.80
2019-02-23T09:29:28.702Z,4.43
2019-02-23T09:31:58.391Z,8.50
2019-02-23T09:34:28.387Z,3.77
2019-02-23T09:36:57.996Z,4.47
2019-02-23T09:39:27.642Z,4.23
2019-02-23T09:42:07.029Z,4.23
2019-02-23T09:44:28.612Z,4.07
2019-02-23T09:46:58.194Z,2.60
2019-02-23T09:49:27.872Z,4.20
2019-02-23T09:51:57.524Z,3.37
2019-02-23T09:54:27.244Z,3.70
2019-02-23T09:56:56.857Z,3.77
2019-02-23T09:59:27.640Z,4.23
2019-02-23T10:01:57.359Z,5.33
2019-02-23T10:04:27.007Z,6.73
2019-02-23T10:06:56.674Z,8.23
2019-02-23T10:09:26.432Z,24.77
2019-02-23T10:11:56.112Z,17.40
2019-02-23T10:14:25.875Z,4.00
2019-02-23T10:16:55.521Z,4.37
2019-02-23T10:19:25.279Z,4.60
2019-02-23T10:21:54.861Z,3.00
2019-02-23T10:24:24.450Z,3.03
2019-02-23T10:26:54.113Z,2.70
2019-02-23T10:29:23.700Z,3.00
2019-02-23T10:31:53.294Z,3.30
2019-02-23T10:34:22.942Z,3.63
2019-02-23T10:36:52.542Z,3.53
2019-02-23T10:39:22.204Z,4.03
2019-02-23T10:42:11.139Z,4.00
2019-02-23T10:44:40.811Z,4.70
2019-02-23T10:47:10.384Z,3.00
2019-02-23T10:49:40.130Z,2.73
2019-02-23T10:52:11.150Z,3.07
2019-02-23T10:54:41.064Z,2.70
2019-02-23T10:57:11.121Z,3.67
2019-02-23T10:59:40.870Z,3.00
2019-02-23T11:02:10.552Z,2.80
2019-02-23T11:04:40.274Z,3.33
2019-02-23T11:07:09.939Z,3.50
2019-02-23T11:09:39.654Z,2.90
2019-02-23T11:12:09.376Z,2.63
2019-02-23T11:14:39.102Z,2.80
2019-02-23T11:17:08.812Z,2.70
2019-02-23T11:19:38.762Z,3.50
2019-02-23T11:22:08.406Z,3.43
2019-02-23T11:24:39.063Z,2.90
2019-02-23T11:27:08.821Z,3.30
2019-02-23T11:29:38.461Z,2.87
2019-02-23T11:32:08.147Z,3.03
2019-02-23T11:34:37.876Z,3.00
2019-02-23T11:37:08.620Z,3.03
2019-02-23T11:39:38.843Z,3.27
2019-02-23T11:42:27.745Z,3.13
2019-02-23T11:44:57.429Z,2.70
2019-02-23T11:47:27.154Z,3.07
2019-02-23T11:49:56.809Z,3.10
2019-02-23T11:52:26.408Z,3.37
2019-02-23T11:54:56.030Z,2.97
2019-02-23T11:57:25.748Z,3.83
2019-02-23T11:59:55.429Z,3.17
2019-02-23T12:02:25.022Z,3.20
2019-02-23T12:04:54.763Z,3.83
2019-02-23T12:07:24.371Z,3.47
2019-02-23T12:09:53.928Z,3.70
2019-02-23T12:12:23.592Z,3.70
2019-02-23T12:14:53.266Z,3.90
2019-02-23T12:17:22.905Z,4.13
2019-02-23T12:19:52.504Z,4.47
2019-02-23T12:22:22.102Z,4.50
2019-02-23T12:24:51.790Z,4.40
2019-02-23T12:27:21.360Z,4.27
2019-02-23T12:29:50.934Z,4.03
2019-02-23T12:32:20.549Z,3.73
2019-02-23T12:34:50.213Z,4.50
2019-02-23T12:37:19.853Z,4.10
2019-02-23T12:39:49.518Z,4.60
2019-02-23T12:42:19.139Z,4.87
2019-02-23T12:44:48.766Z,5.17
2019-02-23T12:47:18.489Z,3.77
2019-02-23T12:49:49.262Z,4.77
2019-02-23T12:52:18.957Z,5.10
2019-02-23T12:54:48.630Z,4.67
2019-02-23T12:57:18.282Z,4.30
2019-02-23T12:59:47.947Z,4.50
2019-02-23T13:02:17.593Z,4.77
2019-02-23T13:04:47.175Z,4.20
2019-02-23T13:07:16.831Z,4.40
2019-02-23T13:09:46.474Z,5.00
2019-02-23T13:12:24.938Z,4.83
2019-02-23T13:15:03.151Z,5.30
2019-02-23T13:17:53.448Z,4.23
2019-02-23T13:20:28.710Z,5.23
2019-02-23T13:23:34.511Z,6.23
2019-02-23T13:26:18.813Z,4.80
2019-02-23T13:29:03.446Z,5.90
2019-02-23T13:31:44.839Z,5.73
2019-02-23T13:34:40.054Z,5.80
2019-02-23T13:37:27.423Z,6.67
2019-02-23T13:40:18.046Z,5.77
2019-02-23T13:43:10.402Z,6.73
2019-02-23T13:45:55.116Z,6.03
2019-02-23T13:48:36.684Z,6.07
2019-02-23T13:51:22.336Z,5.93
2019-02-23T13:54:12.798Z,6.43
2019-02-23T13:57:00.152Z,6.30
2019-02-23T13:59:47.949Z,5.97
2019-02-23T14:02:23.294Z,6.73
2019-02-23T14:05:12.309Z,6.33
2019-02-23T14:07:53.450Z,6.47
2019-02-23T14:10:54.468Z,7.37
2019-02-23T14:13:45.064Z,6.97
2019-02-23T14:16:23.388Z,6.73
2019-02-23T14:19:10.971Z,7.67
2019-02-23T14:21:52.242Z,6.87
2019-02-23T14:24:27.573Z,6.90
2019-02-23T14:27:22.692Z,6.97
2019-02-23T14:30:01.310Z,6.60
2019-02-23T14:32:53.669Z,8.57
2019-02-23T14:35:38.715Z,7.33
2019-02-23T14:38:20.222Z,7.57
2019-02-23T14:41:01.330Z,7.20
2019-02-23T14:43:33.967Z,7.93
2019-02-23T14:46:25.881Z,7.33
2019-02-23T14:49:24.477Z,7.40
2019-02-23T14:52:06.227Z,7.43
2019-02-23T14:55:00.954Z,7.63
2019-02-23T14:57:50.887Z,7.93
2019-02-23T15:00:43.024Z,6.43
2019-02-23T15:03:30.665Z,7.93
2019-02-23T15:06:03.327Z,8.07
2019-02-23T15:08:35.919Z,7.53
2019-02-23T15:11:35.748Z,8.03
2019-02-23T15:14:11.985Z,8.70
2019-02-23T15:17:19.477Z,9.17
2019-02-23T15:19:54.934Z,8.60
2019-02-23T15:22:27.532Z,8.57
2019-02-23T15:25:18.060Z,8.50
2019-02-23T15:28:11.511Z,11.33
2019-02-23T15:30:44.470Z,9.17
2019-02-23T15:33:43.913Z,8.70
2019-02-23T15:36:16.503Z,8.00
2019-02-23T15:39:05.610Z,8.90
2019-02-23T15:42:05.715Z,8.87
2019-02-23T15:45:05.553Z,8.57
2019-02-23T15:47:55.831Z,8.63
2019-02-23T15:50:25.704Z,8.67
2019-02-23T15:52:55.311Z,8.83
2019-02-23T15:55:26.230Z,8.67
2019-02-23T15:57:56.218Z,9.03
2019-02-23T16:00:25.905Z,8.97
2019-02-23T16:02:55.556Z,9.13
2019-02-23T16:05:26.298Z,9.07
2019-02-23T16:07:55.942Z,10.03
2019-02-23T16:10:25.572Z,10.53
2019-02-23T16:12:55.176Z,20.67
2019-02-23T16:15:24.844Z,14.23
2019-02-23T16:17:54.545Z,10.77
2019-02-23T16:20:24.178Z,17.17
2019-02-23T16:22:53.905Z,9.30
2019-02-23T16:25:23.490Z,8.43
2019-02-23T16:27:53.167Z,9.43
2019-02-23T16:30:22.751Z,8.97
2019-02-23T16:32:52.418Z,11.37
2019-02-23T16:35:22.620Z,26.63
2019-02-23T16:37:52.512Z,21.33
2019-02-23T16:40:22.096Z,10.80
2019-02-23T16:42:51.679Z,11.10
2019-02-23T16:45:21.280Z,9.53
2019-02-23T16:47:50.950Z,10.27
2019-02-23T16:50:20.524Z,8.40
2019-02-23T16:52:50.154Z,10.13
2019-02-23T16:55:20.759Z,9.90
2019-02-23T16:57:50.820Z,10.40
2019-02-23T17:00:20.493Z,12.07
2019-02-23T17:02:50.146Z,12.33
2019-02-23T17:05:19.842Z,11.20
2019-02-23T17:07:49.698Z,11.40
2019-02-23T17:10:19.367Z,12.97
2019-02-23T17:12:48.935Z,10.87
2019-02-23T17:15:18.576Z,9.37
2019-02-23T17:17:48.248Z,10.07
2019-02-23T17:20:17.894Z,9.63
2019-02-23T17:22:47.682Z,8.50
2019-02-23T17:25:17.270Z,9.33
2019-02-23T17:27:46.939Z,9.50
2019-02-23T17:30:16.661Z,9.50
2019-02-23T17:32:46.671Z,9.97
2019-02-23T17:35:16.371Z,10.07
2019-02-23T17:37:46.041Z,29.17
2019-02-23T17:40:15.720Z,13.07
2019-02-23T17:42:45.370Z,9.30
2019-02-23T17:45:14.956Z,8.40
2019-02-23T17:47:44.554Z,10.17
2019-02-23T17:50:14.206Z,9.90
2019-02-23T17:52:43.811Z,8.90
2019-02-23T17:55:13.438Z,8.57
2019-02-23T17:57:43.121Z,8.70
2019-02-23T18:00:14.427Z,9.43
2019-02-23T18:02:44.138Z,9.47
2019-02-23T18:05:13.738Z,8.50
2019-02-23T18:07:43.336Z,9.40
2019-02-23T18:10:13.020Z,10.87
2019-02-23T18:12:42.578Z,9.93
2019-02-23T18:15:12.160Z,9.50
2019-02-23T18:17:41.905Z,10.13
2019-02-23T18:20:13.182Z,10.23
2019-02-23T18:22:44.016Z,9.07
2019-02-23T18:25:13.677Z,8.93
2019-02-23T18:27:43.265Z,9.47
2019-02-23T18:30:14.126Z,10.07
2019-02-23T18:32:43.974Z,9.17
2019-02-23T18:35:15.202Z,9.47
2019-02-23T18:37:44.984Z,9.30
2019-02-23T18:40:14.647Z,8.37
2019-02-23T18:42:44.319Z,9.13
2019-02-23T18:45:13.994Z,9.53
2019-02-23T18:47:44.111Z,9.80
2019-02-23T18:50:14.792Z,9.33
2019-02-23T18:52:44.381Z,9.17
2019-02-23T18:55:14.038Z,9.00
2019-02-23T18:57:43.754Z,8.23
2019-02-23T19:00:13.564Z,8.87
2019-02-23T19:02:43.324Z,9.30
2019-02-23T19:05:13.189Z,10.03
2019-02-23T19:07:42.881Z,11.77
2019-02-23T19:10:14.044Z,11.17
2019-02-23T19:12:43.728Z,8.83
2019-02-23T19:15:13.772Z,9.40
2019-02-23T19:17:44.471Z,9.03
2019-02-23T19:20:15.348Z,10.23
2019-02-23T19:22:45.078Z,9.60
2019-02-23T19:25:15.049Z,10.00
2019-02-23T19:27:44.949Z,16.40
2019-02-23T19:30:15.033Z,9.30
2019-02-23T19:32:44.812Z,10.57
2019-02-23T19:35:14.452Z,10.47
2019-02-23T19:37:44.137Z,9.37
2019-02-23T19:40:13.793Z,14.37
2019-02-23T19:42:43.458Z,11.40
2019-02-23T19:45:13.125Z,9.63
2019-02-23T19:47:42.894Z,9.77
2019-02-23T19:50:15.540Z,9.20
2019-02-23T19:52:46.196Z,10.63
2019-02-23T19:55:16.986Z,15.53
2019-02-23T19:57:46.805Z,12.37
2019-02-23T20:00:17.492Z,21.60
2019-02-23T20:02:47.285Z,10.43
2019-02-23T20:05:17.111Z,10.37
2019-02-23T20:07:50.076Z,9.67
2019-02-23T20:10:19.785Z,9.77
2019-02-23T20:12:49.475Z,9.83
2019-02-23T20:15:31.808Z,9.77
2019-02-23T20:18:01.408Z,10.00
2019-02-23T20:20:31.340Z,10.17
2019-02-23T20:23:01.260Z,10.17
2019-02-23T20:25:30.948Z,9.43
2019-02-23T20:28:01.253Z,9.03
2019-02-23T20:30:31.041Z,8.80
2019-02-23T20:33:00.711Z,8.77
2019-02-23T20:35:32.067Z,9.47
2019-02-23T20:38:01.889Z,9.10
2019-02-23T20:40:31.554Z,9.30
2019-02-23T20:43:01.155Z,8.07
2019-02-23T20:45:31.820Z,14.53
2019-02-23T20:48:01.483Z,12.37
2019-02-23T20:50:31.154Z,9.70
2019-02-23T20:53:00.912Z,10.97
2019-02-23T20:55:30.558Z,10.80
2019-02-23T20:58:00.239Z,10.07
2019-02-23T21:00:29.814Z,9.83
2019-02-23T21:02:59.408Z,11.33
2019-02-23T21:05:29.107Z,12.70
2019-02-23T21:07:58.885Z,11.50
2019-02-23T21:10:28.535Z,10.43
2019-02-23T21:12:58.126Z,17.20
2019-02-23T21:15:27.804Z,11.03
2019-02-23T21:17:57.538Z,13.50
2019-02-23T21:20:27.151Z,12.93
2019-02-23T21:22:56.681Z,20.70
2019-02-23T21:25:26.264Z,16.57
2019-02-23T21:27:55.928Z,10.80
2019-02-23T21:30:25.548Z,13.37
2019-02-23T21:32:55.296Z,11.53
2019-02-23T21:35:24.876Z,13.00
2019-02-23T21:37:54.563Z,11.17
2019-02-23T21:40:24.137Z,10.40
2019-02-23T21:42:53.790Z,16.00
2019-02-23T21:45:23.326Z,10.40
2019-02-23T21:47:52.990Z,11.43
2019-02-23T21:50:22.577Z,10.07
2019-02-23T21:52:52.245Z,10.23
2019-02-23T21:55:21.847Z,10.47
2019-02-23T21:57:51.410Z,10.17
2019-02-23T22:00:20.995Z,10.23
2019-02-23T22:02:50.571Z,10.40
2019-02-23T22:05:20.232Z,10.20
2019-02-23T22:07:50.191Z,9.27
2019-02-23T22:10:19.703Z,10.10
2019-02-23T22:12:49.315Z,9.73
2019-02-23T22:15:18.905Z,9.60
2019-02-23T22:17:48.507Z,10.00
2019-02-23T22:20:18.268Z,10.00
2019-02-23T22:22:47.930Z,10.13
2019-02-23T22:25:17.594Z,10.20
2019-02-23T22:27:47.249Z,9.27
2019-02-23T22:30:16.930Z,9.90
2019-02-23T22:32:46.524Z,9.77
2019-02-23T22:35:16.117Z,9.57
2019-02-23T22:37:45.792Z,8.57
2019-02-23T22:40:15.366Z,9.27
2019-02-23T22:42:44.966Z,8.63
2019-02-23T22:45:15.677Z,8.90
2019-02-23T22:47:45.243Z,9.30
2019-02-23T22:50:15.033Z,8.47
2019-02-23T22:52:44.613Z,8.57
2019-02-23T22:55:14.298Z,8.13
2019-02-23T22:57:43.902Z,8.57
2019-02-23T23:00:15.911Z,8.30
2019-02-23T23:02:47.211Z,8.80
2019-02-23T23:05:16.855Z,8.83
2019-02-23T23:07:46.426Z,8.60
2019-02-23T23:10:16.037Z,9.60
2019-02-23T23:12:45.752Z,8.73
2019-02-23T23:15:15.403Z,8.90
2019-02-23T23:17:45.068Z,9.33
2019-02-23T23:20:14.594Z,9.00
2019-02-23T23:22:44.241Z,8.97
2019-02-23T23:25:13.889Z,8.00
2019-02-23T23:27:49.054Z,9.40
2019-02-23T23:30:14.772Z,8.87
2019-02-23T23:32:44.408Z,8.73
2019-02-23T23:35:14.004Z,8.30
2019-02-23T23:37:43.586Z,9.40
2019-02-23T23:40:13.240Z,9.40
2019-02-23T23:42:42.825Z,9.83
2019-02-23T23:45:12.419Z,8.57
2019-02-23T23:47:42.069Z,9.27
2019-02-23T23:50:11.724Z,8.30
2019-02-23T23:52:41.308Z,9.47
2019-02-23T23:55:11.623Z,9.03
2019-02-23T23:57:41.334Z,8.33
